createdAt,value
2022-12-11T00:01:17.881Z,100190.16
2022-12-11T00:03:46.745Z,100186.16
2022-12-11T00:06:15.375Z,100185.97
2022-12-11T00:08:42.125Z,100180.13
2022-12-11T00:11:09.574Z,100188.38
2022-12-11T00:13:36.345Z,100180.53
2022-12-11T00:16:02.938Z,100181.88
2022-12-11T00:18:29.600Z,100185.69
2022-12-11T00:21:01.404Z,100182.63
2022-12-11T00:23:28.272Z,100182.13
2022-12-11T00:25:55.139Z,100175.47
2022-12-11T00:28:22.086Z,100176.81
2022-12-11T00:30:48.719Z,100176.84
2022-12-11T00:33:16.241Z,100170.72
2022-12-11T00:35:45.698Z,100174.19
2022-12-11T00:38:21.513Z,100165.22
2022-12-11T00:40:49.487Z,100167.72
2022-12-11T00:43:17.503Z,100173.78
2022-12-11T00:45:46.540Z,100171.47
2022-12-11T00:48:13.824Z,100171.31
2022-12-11T00:50:41.869Z,100177.81
2022-12-11T00:53:08.657Z,100183.34
2022-12-11T00:55:40.121Z,100182.31
2022-12-11T00:58:07.432Z,100187.13
2022-12-11T01:00:34.321Z,100189.88
2022-12-11T01:03:01.573Z,100186.78
2022-12-11T01:05:28.576Z,100185.44
2022-12-11T01:07:55.140Z,100187.81
2022-12-11T01:10:26.057Z,100189.94
2022-12-11T01:13:01.140Z,100193.72
2022-12-11T01:15:30.809Z,100191.13
2022-12-11T01:17:57.397Z,100188.47
2022-12-11T01:20:25.618Z,100196.09
2022-12-11T01:22:53.731Z,100203.66
2022-12-11T01:25:20.336Z,100195.53
2022-12-11T01:27:47.097Z,100192.19
2022-12-11T01:30:14.348Z,100198.31
2022-12-11T01:32:40.886Z,100195.66
2022-12-11T01:35:08.553Z,100201.34
2022-12-11T01:37:35.345Z,100199.44
2022-12-11T01:40:04.458Z,100204.53
2022-12-11T01:42:31.465Z,100194.50
2022-12-11T01:45:34.465Z,100190.84
2022-12-11T01:48:10.913Z,100178.28
2022-12-11T01:50:45.649Z,100184.78
2022-12-11T01:53:17.308Z,100180.66
2022-12-11T01:55:46.580Z,100180.03
2022-12-11T01:58:13.503Z,100175.72
2022-12-11T02:00:40.213Z,100166.06
2022-12-11T02:03:06.782Z,100168.25
2022-12-11T02:05:33.398Z,100173.72
2022-12-11T02:08:02.965Z,100170.31
2022-12-11T02:10:45.461Z,100170.25
2022-12-11T02:13:22.576Z,100168.75
2022-12-11T02:15:55.414Z,100172.81
2022-12-11T02:18:29.161Z,100174.78
2022-12-11T02:21:03.048Z,100162.06
2022-12-11T02:23:47.723Z,100170.75
2022-12-11T02:26:41.987Z,100174.00
2022-12-11T02:29:30.456Z,100173.22
2022-12-11T02:32:05.364Z,100181.78
2022-12-11T02:34:43.328Z,100181.22
2022-12-11T02:37:16.806Z,100181.25
2022-12-11T02:39:45.563Z,100183.63
2022-12-11T02:42:14.371Z,100179.38
2022-12-11T02:44:41.626Z,100176.69
2022-12-11T02:47:12.860Z,100170.75
2022-12-11T02:49:42.047Z,100167.88
2022-12-11T02:52:12.314Z,100169.03
2022-12-11T02:54:41.172Z,100161.28
2022-12-11T02:57:24.385Z,100163.31
2022-12-11T02:59:50.928Z,100157.38
2022-12-11T03:02:18.784Z,100161.16
2022-12-11T03:04:46.094Z,100156.84
2022-12-11T03:07:17.085Z,100153.66
2022-12-11T03:09:45.542Z,100159.59
2022-12-11T03:12:18.829Z,100151.81
2022-12-11T03:14:45.667Z,100151.41
2022-12-11T03:17:19.639Z,100148.88
2022-12-11T03:19:49.833Z,100155.41
2022-12-11T03:22:16.308Z,100170.09
2022-12-11T03:24:50.894Z,100155.41
2022-12-11T03:27:27.406Z,100158.56
2022-12-11T03:30:14.636Z,100157.28
2022-12-11T03:32:51.563Z,100154.34
2022-12-11T03:35:18.057Z,100155.13
2022-12-11T03:37:48.267Z,100153.22
2022-12-11T03:40:19.212Z,100152.22
2022-12-11T03:42:49.671Z,100147.56
2022-12-11T03:45:19.000Z,100152.72
2022-12-11T03:47:47.291Z,100147.88
2022-12-11T03:50:17.770Z,100149.09
2022-12-11T03:52:46.623Z,100152.94
2022-12-11T03:55:17.034Z,100151.88
2022-12-11T03:57:43.848Z,100150.03
2022-12-11T04:00:17.901Z,100140.34
2022-12-11T04:02:45.015Z,100150.47
2022-12-11T04:05:12.164Z,100149.22
2022-12-11T04:07:39.924Z,100148.88
2022-12-11T04:10:06.993Z,100150.22
2022-12-11T04:12:33.527Z,100152.72
2022-12-11T04:15:02.943Z,100149.25
2022-12-11T04:17:54.824Z,100158.53
2022-12-11T04:20:40.685Z,100151.91
2022-12-11T04:23:31.660Z,100157.56
2022-12-11T04:26:10.529Z,100154.88
2022-12-11T04:28:38.132Z,100156.00
2022-12-11T04:31:05.061Z,100152.97
2022-12-11T04:33:32.152Z,100156.56
2022-12-11T04:35:59.998Z,100156.38
2022-12-11T04:38:26.841Z,100154.66
2022-12-11T04:41:01.832Z,100152.84
2022-12-11T04:43:28.686Z,100153.13
2022-12-11T04:46:07.432Z,100156.09
2022-12-11T04:48:35.141Z,100152.44
2022-12-11T04:51:02.275Z,100155.25
2022-12-11T04:53:28.975Z,100153.75
2022-12-11T04:55:55.495Z,100155.75
2022-12-11T04:58:23.096Z,100149.56
2022-12-11T05:00:49.740Z,100158.25
2022-12-11T05:03:16.866Z,100164.19
2022-12-11T05:05:52.008Z,100157.63
2022-12-11T05:08:20.624Z,100157.44
2022-12-11T05:11:01.946Z,100156.66
2022-12-11T05:13:29.654Z,100160.16
2022-12-11T05:15:56.676Z,100161.94
2022-12-11T05:18:23.254Z,100163.72
2022-12-11T05:21:01.771Z,100164.13
2022-12-11T05:23:29.208Z,100162.38
2022-12-11T05:26:02.001Z,100160.09
2022-12-11T05:28:30.751Z,100160.59
2022-12-11T05:31:08.358Z,100150.09
2022-12-11T05:33:35.388Z,100146.06
2022-12-11T05:36:02.279Z,100152.75
2022-12-11T05:38:29.008Z,100152.59
2022-12-11T05:41:00.537Z,100147.47
2022-12-11T05:43:29.466Z,100143.47
2022-12-11T05:45:56.919Z,100137.13
2022-12-11T05:48:23.467Z,100137.44
2022-12-11T05:50:59.796Z,100149.59
2022-12-11T05:53:26.916Z,100135.31
2022-12-11T05:55:53.929Z,100138.31
2022-12-11T05:58:21.441Z,100131.63
2022-12-11T06:00:48.144Z,100141.25
2022-12-11T06:03:14.776Z,100142.09
2022-12-11T06:05:42.373Z,100143.06
2022-12-11T06:08:09.101Z,100132.75
2022-12-11T06:10:35.683Z,100130.31
2022-12-11T06:13:02.221Z,100137.59
2022-12-11T06:15:28.917Z,100144.28
2022-12-11T06:17:55.731Z,100145.81
2022-12-11T06:20:22.249Z,100142.53
2022-12-11T06:22:49.037Z,100140.06
2022-12-11T06:25:16.073Z,100148.00
2022-12-11T06:27:42.690Z,100144.31
2022-12-11T06:30:09.823Z,100145.75
2022-12-11T06:32:36.798Z,100139.38
2022-12-11T06:35:03.525Z,100144.34
2022-12-11T06:37:30.052Z,100141.34
2022-12-11T06:39:56.590Z,100141.22
2022-12-11T06:42:23.699Z,100138.59
2022-12-11T06:44:50.665Z,100145.81
2022-12-11T06:47:17.183Z,100148.28
2022-12-11T06:49:44.317Z,100149.75
2022-12-11T06:52:16.637Z,100145.84
2022-12-11T06:54:44.953Z,100146.56
2022-12-11T06:57:11.617Z,100140.88
2022-12-11T06:59:38.399Z,100151.69
2022-12-11T07:02:05.277Z,100147.16
2022-12-11T07:04:32.030Z,100143.75
2022-12-11T07:06:58.552Z,100153.22
2022-12-11T07:09:25.068Z,100158.47
2022-12-11T07:11:52.937Z,100154.59
2022-12-11T07:14:20.385Z,100159.38
2022-12-11T07:16:46.922Z,100150.63
2022-12-11T07:19:13.617Z,100148.81
2022-12-11T07:21:40.199Z,100147.22
2022-12-11T07:24:07.382Z,100151.63
2022-12-11T07:26:33.960Z,100156.34
2022-12-11T07:29:00.941Z,100161.69
2022-12-11T07:31:29.427Z,100168.38
2022-12-11T07:33:58.198Z,100157.97
2022-12-11T07:36:25.701Z,100160.84
2022-12-11T07:38:53.273Z,100171.41
2022-12-11T07:41:20.130Z,100171.72
2022-12-11T07:43:53.173Z,100171.03
2022-12-11T07:46:23.679Z,100169.34
2022-12-11T07:48:50.831Z,100160.88
2022-12-11T07:51:20.551Z,100167.34
2022-12-11T07:53:49.488Z,100160.63
2022-12-11T07:56:17.748Z,100164.44
2022-12-11T07:58:44.944Z,100160.97
2022-12-11T08:01:13.911Z,100171.72
2022-12-11T08:03:40.846Z,100167.91
2022-12-11T08:06:07.952Z,100167.53
2022-12-11T08:08:35.029Z,100164.38
2022-12-11T08:11:03.164Z,100174.63
2022-12-11T08:13:30.122Z,100174.13
2022-12-11T08:15:56.751Z,100172.53
2022-12-11T08:18:24.441Z,100165.88
2022-12-11T08:20:51.123Z,100162.63
2022-12-11T08:23:17.671Z,100166.47
2022-12-11T08:25:44.691Z,100173.56
2022-12-11T08:28:12.831Z,100179.41
2022-12-11T08:30:40.346Z,100177.94
2022-12-11T08:33:07.470Z,100176.94
2022-12-11T08:35:39.680Z,100178.22
2022-12-11T08:38:06.199Z,100172.97
2022-12-11T08:40:32.876Z,100175.47
2022-12-11T08:42:59.692Z,100169.63
2022-12-11T08:45:27.197Z,100169.94
2022-12-11T08:47:53.981Z,100166.91
2022-12-11T08:50:20.859Z,100165.88
2022-12-11T08:52:47.511Z,100168.13
2022-12-11T08:55:14.229Z,100156.81
2022-12-11T08:57:40.946Z,100164.69
2022-12-11T09:00:09.564Z,100165.66
2022-12-11T09:02:36.140Z,100174.38
2022-12-11T09:05:02.809Z,100170.69
2022-12-11T09:07:29.327Z,100169.97
2022-12-11T09:09:56.378Z,100175.50
2022-12-11T09:12:23.517Z,100176.38
2022-12-11T09:14:50.173Z,100167.19
2022-12-11T09:17:16.705Z,100167.66
2022-12-11T09:19:43.373Z,100163.69
2022-12-11T09:22:11.227Z,100179.78
2022-12-11T09:24:38.577Z,100175.47
2022-12-11T09:27:06.245Z,100170.44
2022-12-11T09:29:33.024Z,100163.31
2022-12-11T09:31:59.979Z,100157.97
2022-12-11T09:34:29.378Z,100158.75
2022-12-11T09:36:57.102Z,100153.66
2022-12-11T09:39:23.800Z,100155.31
2022-12-11T09:42:14.859Z,100158.03
2022-12-11T09:44:58.326Z,100145.66
2022-12-11T09:47:33.669Z,100148.84
2022-12-11T09:50:09.499Z,100153.06
2022-12-11T09:52:57.839Z,100150.66
2022-12-11T09:55:29.659Z,100152.47
2022-12-11T09:58:16.785Z,100144.47
2022-12-11T10:00:48.339Z,100135.78
2022-12-11T10:03:50.171Z,100127.69
2022-12-11T10:06:33.210Z,100132.50
2022-12-11T10:09:27.938Z,100126.97
2022-12-11T10:12:03.791Z,100125.91
2022-12-11T10:14:47.376Z,100127.09
2022-12-11T10:17:29.407Z,100118.81
2022-12-11T10:20:17.422Z,100117.22
2022-12-11T10:22:45.338Z,100119.75
2022-12-11T10:25:25.226Z,100121.94
2022-12-11T10:27:52.415Z,100118.97
2022-12-11T10:30:36.869Z,100127.25
2022-12-11T10:33:22.579Z,100121.75
2022-12-11T10:35:55.355Z,100121.88
2022-12-11T10:38:27.486Z,100121.19
2022-12-11T10:41:14.246Z,100115.44
2022-12-11T10:43:43.611Z,100116.59
2022-12-11T10:46:33.095Z,100127.84
2022-12-11T10:49:01.049Z,100129.25
2022-12-11T10:51:30.346Z,100126.63
2022-12-11T10:54:07.303Z,100129.88
2022-12-11T10:56:37.425Z,100138.50
2022-12-11T10:59:04.426Z,100126.22
2022-12-11T11:01:32.558Z,100124.44
2022-12-11T11:04:04.224Z,100118.06
2022-12-11T11:06:30.802Z,100125.16
2022-12-11T11:08:59.762Z,100113.75
2022-12-11T11:11:38.153Z,100101.78
2022-12-11T11:14:10.697Z,100108.94
2022-12-11T11:16:39.933Z,100107.56
2022-12-11T11:19:07.101Z,100112.31
2022-12-11T11:21:35.783Z,100111.03
2022-12-11T11:24:03.537Z,100107.59
2022-12-11T11:27:04.443Z,100097.06
2022-12-11T11:29:28.978Z,100098.34
2022-12-11T11:31:56.583Z,100095.69
2022-12-11T11:34:23.368Z,100088.94
2022-12-11T11:36:58.684Z,100087.28
2022-12-11T11:39:25.657Z,100086.03
2022-12-11T11:42:01.629Z,100087.72
2022-12-11T11:44:34.615Z,100078.84
2022-12-11T11:47:10.936Z,100083.34
2022-12-11T11:49:53.113Z,100083.78
2022-12-11T11:52:28.891Z,100076.78
2022-12-11T11:55:15.131Z,100077.06
2022-12-11T11:57:49.448Z,100086.16
2022-12-11T12:00:27.579Z,100083.47
2022-12-11T12:03:06.133Z,100080.94
2022-12-11T12:05:58.133Z,100079.81
2022-12-11T12:08:56.285Z,100082.25
2022-12-11T12:11:42.780Z,100081.88
2022-12-11T12:14:54.494Z,100090.72
2022-12-11T12:17:54.960Z,100086.88
2022-12-11T12:20:44.245Z,100080.31
2022-12-11T12:24:04.413Z,100075.78
2022-12-11T12:26:34.473Z,100074.25
2022-12-11T12:29:06.862Z,100072.84
2022-12-11T12:31:53.757Z,100073.84
2022-12-11T12:34:38.008Z,100070.63
2022-12-11T12:37:12.592Z,100068.66
2022-12-11T12:39:46.160Z,100068.00
2022-12-11T12:42:28.417Z,100071.72
2022-12-11T12:45:03.732Z,100072.56
2022-12-11T12:47:33.868Z,100067.28
2022-12-11T12:50:03.075Z,100067.25
2022-12-11T12:52:34.957Z,100062.03
2022-12-11T12:55:13.894Z,100066.63
2022-12-11T12:58:05.033Z,100063.84
2022-12-11T13:00:39.049Z,100060.75
2022-12-11T13:03:21.842Z,100063.84
2022-12-11T13:06:03.490Z,100056.88
2022-12-11T13:08:46.101Z,100061.03
2022-12-11T13:11:15.323Z,100058.69
2022-12-11T13:13:51.558Z,100052.47
2022-12-11T13:16:19.815Z,100060.66
2022-12-11T13:18:48.341Z,100054.59
2022-12-11T13:21:27.379Z,100048.84
2022-12-11T13:23:54.438Z,100053.06
2022-12-11T13:26:32.949Z,100046.22
2022-12-11T13:28:59.505Z,100050.38
2022-12-11T13:31:34.549Z,100068.88
2022-12-11T13:34:21.618Z,100053.06
2022-12-11T13:36:53.307Z,100055.44
2022-12-11T13:39:25.519Z,100053.22
2022-12-11T13:41:56.751Z,100058.53
2022-12-11T13:44:30.553Z,100061.75
2022-12-11T13:47:00.192Z,100074.03
2022-12-11T13:49:31.114Z,100078.94
2022-12-11T13:51:59.805Z,100079.88
2022-12-11T13:54:28.538Z,100074.72
2022-12-11T13:57:08.665Z,100081.59
2022-12-11T13:59:42.894Z,100074.16
2022-12-11T14:02:18.519Z,100081.16
2022-12-11T14:04:47.968Z,100083.63
2022-12-11T14:07:20.582Z,100078.31
2022-12-11T14:09:47.153Z,100083.34
2022-12-11T14:12:20.218Z,100085.75
2022-12-11T14:14:53.305Z,100082.94
2022-12-11T14:17:26.782Z,100089.34
2022-12-11T14:19:56.344Z,100089.34
2022-12-11T14:22:25.453Z,100080.94
2022-12-11T14:24:58.165Z,100084.25
2022-12-11T14:27:26.246Z,100085.09
2022-12-11T14:29:53.308Z,100093.88
2022-12-11T14:32:34.697Z,100097.03
2022-12-11T14:35:05.872Z,100088.88
2022-12-11T14:37:34.327Z,100086.88
2022-12-11T14:40:07.236Z,100092.56
2022-12-11T14:42:43.587Z,100094.16
2022-12-11T14:45:24.264Z,100089.19
2022-12-11T14:47:52.983Z,100096.09
2022-12-11T14:50:30.933Z,100094.66
2022-12-11T14:53:04.480Z,100091.53
2022-12-11T14:55:35.078Z,100089.16
2022-12-11T14:58:17.585Z,100086.72
2022-12-11T15:00:44.156Z,100088.28
2022-12-11T15:03:17.322Z,100103.25
2022-12-11T15:05:55.440Z,100100.22
2022-12-11T15:08:27.756Z,100110.47
2022-12-11T15:11:08.078Z,100109.25
2022-12-11T15:13:37.268Z,100111.22
2022-12-11T15:16:07.420Z,100118.69
2022-12-11T15:18:36.675Z,100113.59
2022-12-11T15:21:07.115Z,100118.44
2022-12-11T15:23:48.796Z,100105.94
2022-12-11T15:26:15.585Z,100116.03
2022-12-11T15:28:42.154Z,100122.53
2022-12-11T15:31:29.587Z,100112.63
2022-12-11T15:33:56.656Z,100122.63
2022-12-11T15:36:31.829Z,100119.84
2022-12-11T15:38:59.228Z,100116.34
2022-12-11T15:41:26.326Z,100114.13
2022-12-11T15:43:58.845Z,100113.16
2022-12-11T15:46:25.611Z,100114.06
2022-12-11T15:48:52.191Z,100102.16
2022-12-11T15:51:19.289Z,100095.13
2022-12-11T15:53:46.637Z,100101.81
2022-12-11T15:56:15.012Z,100102.38
2022-12-11T15:58:45.663Z,100100.25
2022-12-11T16:01:12.335Z,100102.41
2022-12-11T16:03:39.028Z,100102.53
2022-12-11T16:06:05.745Z,100097.56
2022-12-11T16:08:32.673Z,100098.66
2022-12-11T16:10:59.298Z,100106.97
2022-12-11T16:13:27.085Z,100100.56
2022-12-11T16:15:54.323Z,100095.75
2022-12-11T16:18:23.559Z,100102.16
2022-12-11T16:20:51.513Z,100096.16
2022-12-11T16:23:18.629Z,100097.00
2022-12-11T16:25:46.094Z,100092.88
2022-12-11T16:28:17.984Z,100090.88
2022-12-11T16:30:45.771Z,100084.97
2022-12-11T16:33:13.788Z,100083.81
2022-12-11T16:35:42.641Z,100078.53
2022-12-11T16:38:10.410Z,100079.69
2022-12-11T16:40:37.757Z,100083.59
2022-12-11T16:43:05.934Z,100084.84
2022-12-11T16:45:33.008Z,100087.69
2022-12-11T16:48:02.971Z,100080.50
2022-12-11T16:50:29.521Z,100078.63
2022-12-11T16:52:57.021Z,100077.66
2022-12-11T16:55:24.075Z,100075.00
2022-12-11T16:57:50.682Z,100079.88
2022-12-11T17:00:17.440Z,100078.16
2022-12-11T17:02:44.079Z,100088.94
2022-12-11T17:05:12.701Z,100086.59
2022-12-11T17:07:40.361Z,100089.84
2022-12-11T17:10:08.046Z,100086.38
2022-12-11T17:12:34.682Z,100089.75
2022-12-11T17:15:01.325Z,100091.56
2022-12-11T17:17:27.928Z,100095.88
2022-12-11T17:19:55.684Z,100093.00
2022-12-11T17:22:22.768Z,100096.09
2022-12-11T17:24:49.627Z,100098.22
2022-12-11T17:27:16.850Z,100099.72
2022-12-11T17:29:43.891Z,100095.19
2022-12-11T17:32:11.138Z,100094.00
2022-12-11T17:34:38.594Z,100092.03
2022-12-11T17:37:06.163Z,100100.78
2022-12-11T17:39:33.151Z,100102.75
2022-12-11T17:41:59.825Z,100104.47
2022-12-11T17:44:26.813Z,100103.28
2022-12-11T17:46:53.516Z,100102.06
2022-12-11T17:49:20.151Z,100102.47
2022-12-11T17:51:47.812Z,100112.19
2022-12-11T17:54:14.855Z,100103.31
2022-12-11T17:56:41.608Z,100102.38
2022-12-11T17:59:08.229Z,100106.50
2022-12-11T18:01:35.294Z,100104.41
2022-12-11T18:04:02.365Z,100110.63
2022-12-11T18:06:29.860Z,100111.13
2022-12-11T18:08:57.390Z,100109.78
2022-12-11T18:11:24.181Z,100113.03
2022-12-11T18:13:52.642Z,100117.78
2022-12-11T18:16:24.510Z,100119.28
2022-12-11T18:18:52.021Z,100107.66
2022-12-11T18:21:22.654Z,100103.53
2022-12-11T18:23:50.451Z,100104.16
2022-12-11T18:26:19.219Z,100101.84
2022-12-11T18:28:47.313Z,100097.84
2022-12-11T18:31:14.308Z,100103.13
2022-12-11T18:33:42.818Z,100100.50
2022-12-11T18:36:10.412Z,100105.00
2022-12-11T18:38:37.949Z,100097.84
2022-12-11T18:41:06.648Z,100100.56
2022-12-11T18:43:33.742Z,100099.53
2022-12-11T18:46:09.272Z,100098.25
2022-12-11T18:48:36.451Z,100098.38
2022-12-11T18:51:10.197Z,100095.63
2022-12-11T18:53:39.233Z,100092.56
2022-12-11T18:56:10.986Z,100096.25
2022-12-11T18:58:37.729Z,100096.44
2022-12-11T19:01:10.008Z,100089.56
2022-12-11T19:03:37.037Z,100088.53
2022-12-11T19:06:24.408Z,100094.75
2022-12-11T19:08:51.246Z,100095.81
2022-12-11T19:11:20.621Z,100099.50
2022-12-11T19:13:48.351Z,100104.31
2022-12-11T19:16:20.067Z,100108.09
2022-12-11T19:18:46.780Z,100119.69
2022-12-11T19:21:15.298Z,100121.59
2022-12-11T19:23:44.276Z,100126.19
2022-12-11T19:26:18.111Z,100118.41
2022-12-11T19:28:46.699Z,100125.50
2022-12-11T19:31:17.206Z,100130.69
2022-12-11T19:33:46.591Z,100135.75
2022-12-11T19:36:16.385Z,100132.16
2022-12-11T19:38:45.113Z,100133.06
2022-12-11T19:41:15.736Z,100129.47
2022-12-11T19:43:42.471Z,100136.25
2022-12-11T19:46:09.982Z,100139.44
2022-12-11T19:48:38.240Z,100140.28
2022-12-11T19:51:07.009Z,100128.50
2022-12-11T19:53:34.549Z,100130.91
2022-12-11T19:56:01.333Z,100136.75
2022-12-11T19:58:28.008Z,100135.41
2022-12-11T20:00:54.737Z,100135.09
2022-12-11T20:03:21.969Z,100135.00
2022-12-11T20:05:48.501Z,100131.31
2022-12-11T20:08:42.909Z,100126.97
2022-12-11T20:11:06.219Z,100134.56
2022-12-11T20:13:36.229Z,100133.59
2022-12-11T20:16:09.865Z,100127.50
2022-12-11T20:18:37.479Z,100132.22
2022-12-11T20:21:07.785Z,100130.53
2022-12-11T20:23:35.408Z,100122.63
2022-12-11T20:26:32.517Z,100116.06
2022-12-11T20:28:59.193Z,100132.09
2022-12-11T20:31:26.520Z,100131.78
2022-12-11T20:33:55.588Z,100133.06
2022-12-11T20:36:24.037Z,100135.03
2022-12-11T20:38:51.523Z,100127.69
2022-12-11T20:41:20.586Z,100136.97
2022-12-11T20:43:49.074Z,100135.00
2022-12-11T20:46:17.375Z,100140.91
2022-12-11T20:48:45.438Z,100137.16
2022-12-11T20:51:18.595Z,100134.09
2022-12-11T20:53:56.668Z,100130.25
2022-12-11T20:56:24.504Z,100135.19
2022-12-11T20:58:51.392Z,100136.78
2022-12-11T21:01:21.682Z,100127.66
2022-12-11T21:03:49.086Z,100133.63
2022-12-11T21:06:28.240Z,100133.34
2022-12-11T21:08:54.769Z,100127.97
2022-12-11T21:11:21.679Z,100117.22
2022-12-11T21:13:51.129Z,100130.31
2022-12-11T21:16:19.237Z,100130.09
2022-12-11T21:18:46.600Z,100134.94
2022-12-11T21:21:13.346Z,100131.25
2022-12-11T21:23:40.036Z,100135.19
2022-12-11T21:26:07.153Z,100138.78
2022-12-11T21:28:35.657Z,100134.97
2022-12-11T21:31:06.311Z,100138.25
2022-12-11T21:33:33.454Z,100130.66
2022-12-11T21:36:00.783Z,100131.41
2022-12-11T21:38:28.210Z,100126.13
2022-12-11T21:40:55.831Z,100132.38
2022-12-11T21:43:23.781Z,100124.25
2022-12-11T21:46:06.766Z,100122.44
2022-12-11T21:48:33.578Z,100125.81
2022-12-11T21:51:11.513Z,100122.75
2022-12-11T21:53:38.427Z,100121.06
2022-12-11T21:56:07.332Z,100111.34
2022-12-11T21:58:33.909Z,100119.34
2022-12-11T22:01:00.611Z,100120.84
2022-12-11T22:03:27.315Z,100123.28
2022-12-11T22:05:54.194Z,100131.41
2022-12-11T22:08:20.862Z,100127.19
2022-12-11T22:10:47.854Z,100154.66
2022-12-11T22:13:14.633Z,100143.25
2022-12-11T22:15:41.263Z,100139.63
2022-12-11T22:18:07.854Z,100148.41
2022-12-11T22:20:34.381Z,100143.78
2022-12-11T22:23:01.165Z,100143.88
2022-12-11T22:25:27.706Z,100142.66
2022-12-11T22:27:54.230Z,100148.28
2022-12-11T22:30:20.880Z,100150.44
2022-12-11T22:32:48.284Z,100143.19
2022-12-11T22:35:15.294Z,100139.88
2022-12-11T22:37:41.967Z,100135.72
2022-12-11T22:40:08.832Z,100138.09
2022-12-11T22:42:36.050Z,100135.56
2022-12-11T22:45:02.953Z,100138.44
2022-12-11T22:47:29.500Z,100138.47
2022-12-11T22:49:56.104Z,100128.97
2022-12-11T22:52:22.643Z,100132.75
2022-12-11T22:54:49.221Z,100131.94
2022-12-11T22:57:15.881Z,100131.81
2022-12-11T22:59:42.555Z,100132.00
2022-12-11T23:02:09.250Z,100132.44
2022-12-11T23:04:38.284Z,100138.66
2022-12-11T23:07:04.884Z,100137.75
2022-12-11T23:09:31.932Z,100138.28
2022-12-11T23:11:58.874Z,100137.31
2022-12-11T23:14:25.940Z,100139.25
2022-12-11T23:16:52.566Z,100140.69
2022-12-11T23:19:23.845Z,100140.41
2022-12-11T23:21:52.663Z,100138.59
2022-12-11T23:24:19.278Z,100146.63
2022-12-11T23:26:45.852Z,100141.22
2022-12-11T23:29:12.356Z,100146.28
2022-12-11T23:31:39.099Z,100141.75
2022-12-11T23:34:05.709Z,100136.47
2022-12-11T23:36:33.070Z,100134.59
2022-12-11T23:38:59.620Z,100137.31
2022-12-11T23:41:26.662Z,100134.69
2022-12-11T23:43:53.273Z,100134.81
2022-12-11T23:46:23.066Z,100135.41
2022-12-11T23:48:50.862Z,100131.84
2022-12-11T23:51:19.566Z,100126.97
2022-12-11T23:53:46.534Z,100135.00
2022-12-11T23:56:16.553Z,100138.19
2022-12-11T23:58:43.224Z,100139.09
